Time;durP1;ratioP1;P1;durP2;ratioP2;P2;SDS_P1;SDS_P2;PMS_P1;PMS_P2;Temp;Humidity;BMP_temperature;BMP_pressure;BME280_temperature;BME280_humidity;BME280_pressure;Samples;Min_cycle;Max_cycle;Signal;HPM_P1;HPM_P2
2021/05/13 00:02:01;;;;;;;2.43;2.33;;;;;;;14.54;72.04;97156.30;128391;1105;22895;-83
2021/05/13 00:04:28;;;;;;;2.80;2.60;;;;;;;14.49;72.36;97151.95;127484;1099;114914;-83
2021/05/13 00:06:54;;;;;;;2.88;2.68;;;;;;;14.45;72.60;97142.19;127596;1104;115182;-83
2021/05/13 00:09:20;;;;;;;2.30;2.20;;;;;;;14.44;73.80;97135.99;127480;1104;114891;-83
2021/05/13 00:11:48;;;;;;;2.48;2.38;;;;;;;14.43;73.01;97136.37;127580;1104;115618;-83
2021/05/13 00:14:16;;;;;;;2.60;2.50;;;;;;;14.42;73.49;97132.88;128409;1099;22805;-82
2021/05/13 00:16:44;;;;;;;2.80;2.60;;;;;;;14.42;73.32;97129.36;127574;1105;115076;-82
2021/05/13 00:19:13;;;;;;;2.53;2.43;;;;;;;14.42;72.54;97138.30;127553;1107;115734;-82
2021/05/13 00:21:42;;;;;;;2.70;2.50;;;;;;;14.39;72.62;97133.60;127597;1104;115070;-82
2021/05/13 00:24:10;;;;;;;2.78;2.58;;;;;;;14.35;72.53;97127.35;127698;1104;116085;-82
2021/05/13 00:26:46;;;;;;;2.80;2.60;;;;;;;14.30;72.82;97133.06;127468;1107;115290;-82
2021/05/13 00:29:15;;;;;;;2.65;2.45;;;;;;;14.27;73.29;97125.69;128300;1104;22835;-83
2021/05/13 00:31:42;;;;;;;2.80;2.60;;;;;;;14.25;72.95;97117.13;127545;1106;115574;-83
2021/05/13 00:34:09;;;;;;;2.75;2.58;;;;;;;14.25;73.12;97119.84;127727;1099;115071;-83
2021/05/13 00:36:38;;;;;;;2.53;2.40;;;;;;;14.28;73.65;97116.41;127553;1104;115030;-83
2021/05/13 00:39:09;;;;;;;2.90;2.70;;;;;;;14.30;73.64;97118.75;127467;1105;115294;-83
2021/05/13 00:41:36;;;;;;;2.80;2.60;;;;;;;14.33;73.54;97113.38;127492;1104;115644;-83
2021/05/13 00:44:03;;;;;;;2.97;2.77;;;;;;;14.36;73.45;97117.30;128314;1104;22818;-83
2021/05/13 00:46:30;;;;;;;2.90;2.70;;;;;;;14.36;73.02;97109.95;127500;1105;115477;-83
2021/05/13 00:49:06;;;;;;;2.70;2.60;;;;;;;14.33;73.32;97115.31;127568;1104;115367;-83
2021/05/13 00:51:33;;;;;;;2.73;2.60;;;;;;;14.28;72.31;97102.09;127518;1104;114882;-82
2021/05/13 00:53:59;;;;;;;3.18;2.95;;;;;;;14.21;72.27;97100.83;127564;1104;115634;-83
2021/05/13 00:56:28;;;;;;;3.50;3.20;;;;;;;14.17;73.00;97096.52;128325;1106;22760;-82
2021/05/13 00:58:56;;;;;;;2.83;2.63;;;;;;;14.14;73.46;97094.53;128432;1100;22729;-82
2021/05/13 01:01:24;;;;;;;2.85;2.60;;;;;;;14.13;73.67;97091.05;127615;1104;115004;-83
2021/05/13 01:03:50;;;;;;;2.90;2.70;;;;;;;14.15;73.51;97086.06;127534;1104;115853;-83
2021/05/13 01:06:16;;;;;;;3.00;2.80;;;;;;;14.15;73.32;97085.28;127518;1104;116370;-83
2021/05/13 01:08:43;;;;;;;2.90;2.70;;;;;;;14.12;73.80;97078.66;127567;1099;115758;-83
2021/05/13 01:11:13;;;;;;;3.15;2.90;;;;;;;14.10;73.43;97083.64;128397;1104;22721;-83
2021/05/13 01:14:09;;;;;;;3.10;2.90;;;;;;;14.05;72.81;97073.13;127597;1104;116871;-82
2021/05/13 01:16:50;;;;;;;3.23;3.03;;;;;;;13.97;72.87;97074.17;127552;1104;115238;-82
2021/05/13 01:19:19;;;;;;;3.00;2.80;;;;;;;13.93;73.83;97073.34;127679;1104;115279;-82
2021/05/13 01:21:45;;;;;;;2.95;2.75;;;;;;;13.89;73.65;97072.50;127468;1098;116307;-84
2021/05/13 01:24:12;;;;;;;3.20;3.00;;;;;;;13.85;74.10;97063.55;127577;1098;116105;-83
2021/05/13 01:26:42;;;;;;;3.23;2.93;;;;;;;13.78;74.42;97066.91;127603;1105;115265;-82
2021/05/13 01:29:10;;;;;;;3.40;3.20;;;;;;;13.72;74.18;97057.55;128305;1105;22759;-82
2021/05/13 01:31:36;;;;;;;3.23;3.03;;;;;;;13.66;74.61;97057.05;127526;1104;115343;-82
2021/05/13 01:34:05;;;;;;;3.35;3.15;;;;;;;13.64;74.39;97058.58;127440;1104;115641;-82
2021/05/13 01:36:32;;;;;;;3.25;3.05;;;;;;;13.66;75.12;97054.35;127532;1104;114978;-83
2021/05/13 01:38:58;;;;;;;3.10;2.90;;;;;;;13.68;75.21;97049.38;127540;1104;115771;-82
2021/05/13 01:41:24;;;;;;;3.05;2.85;;;;;;;13.68;75.21;97041.27;128352;1105;22749;-83
2021/05/13 01:43:50;;;;;;;3.63;3.35;;;;;;;13.65;75.00;97049.31;127626;1104;115315;-83
2021/05/13 01:46:16;;;;;;;3.60;3.30;;;;;;;13.55;74.93;97044.50;127621;1104;114943;-82
2021/05/13 01:48:44;;;;;;;3.18;2.88;;;;;;;13.50;75.06;97048.29;127600;1104;115751;-82
2021/05/13 01:51:11;;;;;;;3.55;3.28;;;;;;;13.46;75.17;97040.11;127588;1104;115519;-82
2021/05/13 01:53:42;;;;;;;3.23;3.03;;;;;;;13.44;75.42;97036.19;127514;1099;115552;-82
2021/05/13 01:56:10;;;;;;;3.20;2.90;;;;;;;13.39;75.39;97031.88;128333;1105;22790;-83
2021/05/13 01:58:37;;;;;;;3.25;3.00;;;;;;;13.37;75.75;97034.17;127729;1104;116470;-82
2021/05/13 02:01:04;;;;;;;3.20;3.00;;;;;;;13.38;75.73;97040.35;127489;1105;115180;-82
2021/05/13 02:03:31;;;;;;;3.25;3.05;;;;;;;13.37;75.31;97036.09;127571;1105;115155;-82
2021/05/13 02:05:57;;;;;;;3.15;2.95;;;;;;;13.34;75.61;97024.07;127626;1100;115699;-82
2021/05/13 02:08:24;;;;;;;3.05;2.85;;;;;;;13.32;75.05;97026.34;128423;1104;22729;-82
2021/05/13 02:10:50;;;;;;;3.00;2.80;;;;;;;13.28;75.22;97028.20;127613;1104;115348;-83
2021/05/13 02:13:16;;;;;;;3.50;3.25;;;;;;;13.28;75.44;97016.61;127470;1105;115170;-82
2021/05/13 02:15:42;;;;;;;2.97;2.77;;;;;;;13.32;75.84;97017.45;127496;1104;115338;-82
2021/05/13 02:18:08;;;;;;;3.10;2.90;;;;;;;13.31;75.68;97019.38;127485;1100;115351;-83
2021/05/13 02:20:35;;;;;;;2.58;2.38;;;;;;;13.33;76.03;97022.52;127497;1105;115984;-83
2021/05/13 02:23:01;;;;;;;2.73;2.53;;;;;;;13.36;75.66;97029.91;128254;1107;22853;-82
2021/05/13 02:25:30;;;;;;;2.70;2.50;;;;;;;13.36;74.78;97024.50;127473;1105;115258;-82
2021/05/13 02:27:57;;;;;;;2.80;2.60;;;;;;;13.31;74.95;97018.59;127511;1105;115134;-82
2021/05/13 02:30:23;;;;;;;2.65;2.55;;;;;;;13.28;74.81;97028.20;127644;1104;115708;-82
2021/05/13 02:32:49;;;;;;;2.40;2.30;;;;;;;13.25;74.59;97012.72;127518;1104;115305;-82
2021/05/13 02:35:15;;;;;;;2.53;2.38;;;;;;;13.22;75.06;97014.18;128361;1105;22795;-83
2021/05/13 02:37:42;;;;;;;2.68;2.48;;;;;;;13.19;74.55;97014.89;127577;1104;115457;-83
2021/05/13 02:40:09;;;;;;;2.65;2.45;;;;;;;13.17;75.68;97011.78;127614;1104;115588;-82
2021/05/13 02:42:36;;;;;;;2.40;2.30;;;;;;;13.16;75.16;97009.42;127529;1100;115435;-82
2021/05/13 02:45:04;;;;;;;2.50;2.30;;;;;;;13.16;75.32;97015.60;127516;1104;115835;-82
2021/05/13 02:47:31;;;;;;;2.70;2.50;;;;;;;13.17;75.14;97017.19;127586;1104;115134;-83
2021/05/13 02:49:57;;;;;;;2.50;2.33;;;;;;;13.15;74.74;97014.05;128298;1106;22745;-82
2021/05/13 02:52:23;;;;;;;2.38;2.18;;;;;;;13.14;74.49;97015.20;127620;1104;115755;-82
2021/05/13 02:54:49;;;;;;;2.90;2.70;;;;;;;13.11;75.25;97023.23;127660;1104;115245;-82
2021/05/13 02:57:15;;;;;;;2.80;2.60;;;;;;;13.10;74.68;97014.35;127606;1104;115627;-82
2021/05/13 02:59:46;;;;;;;2.80;2.60;;;;;;;13.10;74.65;97014.35;127611;1104;115468;-83
2021/05/13 03:02:14;;;;;;;3.08;2.88;;;;;;;13.14;75.27;97011.72;128450;1104;22759;-82
2021/05/13 03:04:42;;;;;;;2.75;2.55;;;;;;;13.18;75.52;97012.56;127524;1104;115426;-82
2021/05/13 03:07:09;;;;;;;2.60;2.40;;;;;;;13.21;74.82;97007.22;127634;1099;116184;-82
2021/05/13 03:09:58;;;;;;;2.78;2.58;;;;;;;13.25;75.34;97013.50;127645;1104;115485;-83
2021/05/13 03:12:24;;;;;;;2.58;2.38;;;;;;;13.30;75.20;97008.94;127543;1105;115480;-83
2021/05/13 03:14:51;;;;;;;3.00;2.50;;;;;;;13.32;74.53;97006.64;127494;1105;115258;-83
2021/05/13 03:17:17;;;;;;;2.85;2.55;;;;;;;13.33;74.78;97013.63;128493;1104;22814;-83
2021/05/13 03:19:46;;;;;;;2.83;2.58;;;;;;;13.29;74.89;97018.97;127505;1099;115543;-83
2021/05/13 03:22:15;;;;;;;2.70;2.50;;;;;;;13.26;74.67;97009.65;127476;1105;115150;-83
2021/05/13 03:24:51;;;;;;;2.70;2.50;;;;;;;13.23;74.71;97013.06;127702;1104;115116;-82
2021/05/13 03:27:53;;;;;;;3.30;3.00;;;;;;;13.23;74.70;97010.36;127540;1105;116253;-83
2021/05/13 03:30:24;;;;;;;2.83;2.63;;;;;;;13.25;74.45;97013.50;127544;1105;115394;-83
2021/05/13 03:32:51;;;;;;;2.70;2.50;;;;;;;13.30;75.42;97012.41;127590;1100;115156;-83
2021/05/13 03:35:18;;;;;;;2.80;2.60;;;;;;;13.25;75.28;97007.31;128333;1105;22754;-83
2021/05/13 03:37:44;;;;;;;2.70;2.50;;;;;;;13.26;74.99;97008.88;127710;1099;114990;-83
2021/05/13 03:40:11;;;;;;;2.98;2.78;;;;;;;13.26;74.45;97006.17;127527;1105;114803;-83
2021/05/13 03:42:37;;;;;;;2.88;2.53;;;;;;;13.23;74.68;97012.28;127611;1104;114836;-82
2021/05/13 03:45:05;;;;;;;2.80;2.60;;;;;;;13.21;74.81;97009.15;127665;1104;115399;-82
2021/05/13 03:47:39;;;;;;;3.63;3.03;;;;;;;13.20;75.06;97010.27;127516;1104;115081;-82
2021/05/13 03:50:05;;;;;;;3.13;2.88;;;;;;;13.19;74.53;97009.48;128432;1104;22740;-84
2021/05/13 03:52:32;;;;;;;3.90;3.03;;;;;;;13.19;74.34;97006.01;127606;1098;115142;-83
2021/05/13 03:54:58;;;;;;;3.10;2.80;;;;;;;13.17;74.47;97005.60;127576;1104;115132;-83
2021/05/13 03:57:24;;;;;;;3.25;2.73;;;;;;;13.19;75.50;97014.11;127571;1099;115572;-83
2021/05/13 03:59:52;;;;;;;2.90;2.70;;;;;;;13.20;74.60;97011.07;127633;1104;115680;-83
2021/05/13 04:02:32;;;;;;;3.15;2.85;;;;;;;13.25;75.05;97015.42;128490;1104;22768;-83
2021/05/13 04:05:00;;;;;;;2.75;2.55;;;;;;;13.25;74.62;97010.80;128459;1104;22729;-83
2021/05/13 04:07:32;;;;;;;3.05;2.78;;;;;;;13.25;74.34;97016.20;127467;1105;115689;-83
2021/05/13 04:09:58;;;;;;;3.25;2.98;;;;;;;13.26;74.41;97011.58;127534;1104;114981;-83
2021/05/13 04:12:24;;;;;;;3.95;3.05;;;;;;;13.22;74.66;97011.48;127471;1104;115245;-84
2021/05/13 04:14:51;;;;;;;3.70;3.40;;;;;;;13.15;74.05;97015.97;127448;1104;116460;-83
2021/05/13 04:17:17;;;;;;;3.35;3.05;;;;;;;13.08;74.43;97015.84;128443;1105;22763;-83
2021/05/13 04:19:43;;;;;;;3.50;3.20;;;;;;;13.03;74.57;97009.59;127512;1105;115437;-83
2021/05/13 04:22:11;;;;;;;3.60;3.13;;;;;;;13.05;74.61;97013.84;127488;1099;115422;-83
2021/05/13 04:24:38;;;;;;;3.25;2.95;;;;;;;13.10;75.06;97018.98;127481;1105;115691;-83
2021/05/13 04:27:05;;;;;;;3.40;3.10;;;;;;;13.12;74.76;97008.58;127468;1105;116504;-84
2021/05/13 04:29:31;;;;;;;3.27;2.97;;;;;;;13.13;74.78;97021.75;127564;1104;115773;-84
2021/05/13 04:31:57;;;;;;;3.90;3.40;;;;;;;13.12;75.10;97012.06;128463;1104;22753;-84
2021/05/13 04:34:24;;;;;;;3.53;3.23;;;;;;;13.17;74.47;97013.70;127491;1104;115237;-84
2021/05/13 04:36:50;;;;;;;3.40;2.93;;;;;;;13.19;74.32;97019.52;127614;1105;115629;-84
2021/05/13 04:39:16;;;;;;;3.20;2.90;;;;;;;13.20;74.32;97013.78;127496;1105;115943;-84
2021/05/13 04:41:43;;;;;;;3.30;3.00;;;;;;;13.19;74.97;97016.81;127493;1100;115603;-83
2021/05/13 04:44:09;;;;;;;4.20;3.33;;;;;;;13.16;74.93;97014.83;128338;1105;22830;-84
2021/05/13 04:46:36;;;;;;;3.53;3.20;;;;;;;13.13;74.69;97018.27;127448;1104;115220;-84
2021/05/13 04:49:24;;;;;;;3.45;3.03;;;;;;;13.12;74.61;97014.77;127603;1104;116330;-84
2021/05/13 04:51:50;;;;;;;3.33;3.03;;;;;;;13.18;74.83;97016.05;127534;1105;115193;-82
2021/05/13 04:54:17;;;;;;;3.33;3.03;;;;;;;13.24;75.24;97021.95;127585;1104;115269;-83
2021/05/13 04:56:45;;;;;;;3.30;2.97;;;;;;;13.28;74.16;97014.69;127555;1105;116683;-82
2021/05/13 04:59:11;;;;;;;3.48;3.13;;;;;;;13.26;74.12;97020.46;128323;1104;23381;-84
2021/05/13 05:01:37;;;;;;;3.50;3.20;;;;;;;13.30;74.25;97007.01;127622;1104;115374;-84
2021/05/13 05:04:04;;;;;;;3.45;3.15;;;;;;;13.33;74.12;97009.00;127567;1105;115372;-84
2021/05/13 05:06:32;;;;;;;5.10;3.68;;;;;;;13.35;74.49;97006.70;127468;1105;116865;-84
2021/05/13 05:08:58;;;;;;;4.03;3.38;;;;;;;13.38;74.31;97005.21;127445;1100;115707;-85
2021/05/13 05:11:24;;;;;;;4.68;3.28;;;;;;;13.38;74.69;97011.39;128379;1100;22745;-84
2021/05/13 05:13:51;;;;;;;4.43;3.60;;;;;;;13.38;74.17;97005.98;127559;1105;114858;-83
2021/05/13 05:16:17;;;;;;;3.53;3.23;;;;;;;13.44;74.10;97004.55;127522;1104;116230;-83
2021/05/13 05:18:44;;;;;;;3.63;3.30;;;;;;;13.51;74.30;97001.16;127607;1104;115315;-82
2021/05/13 05:21:10;;;;;;;3.45;3.00;;;;;;;13.56;74.49;97006.30;127482;1107;115579;-84
2021/05/13 05:23:38;;;;;;;4.30;3.08;;;;;;;13.60;73.99;97001.72;127514;1104;116137;-83
2021/05/13 05:26:04;;;;;;;3.40;3.10;;;;;;;13.61;73.74;96994.38;128328;1104;22733;-84
2021/05/13 05:28:30;;;;;;;3.38;3.08;;;;;;;13.61;73.60;97002.50;127395;1099;115507;-82
2021/05/13 05:30:56;;;;;;;4.48;3.18;;;;;;;13.62;73.22;97009.45;127598;1100;115511;-83
2021/05/13 05:33:23;;;;;;;3.50;3.13;;;;;;;13.58;73.81;96997.80;127602;1105;115652;-84
2021/05/13 05:35:50;;;;;;;4.68;3.75;;;;;;;13.54;73.82;97007.78;127646;1104;115969;-85
2021/05/13 05:38:16;;;;;;;3.30;3.00;;;;;;;13.47;73.93;97011.92;128479;1105;22733;-85
2021/05/13 05:40:43;;;;;;;4.13;3.60;;;;;;;13.39;73.63;97009.47;127521;1104;115655;-84
2021/05/13 05:43:09;;;;;;;3.95;3.28;;;;;;;13.42;74.12;97001.42;127477;1104;115485;-83
2021/05/13 05:45:35;;;;;;;3.57;3.20;;;;;;;13.48;74.49;97013.51;127345;1104;115869;-83
2021/05/13 05:48:02;;;;;;;5.35;3.38;;;;;;;13.49;74.11;97003.47;127248;1099;116100;-83
2021/05/13 05:50:30;;;;;;;3.40;3.10;;;;;;;13.54;73.88;97010.49;127538;1106;115190;-83
2021/05/13 05:52:56;;;;;;;3.13;2.80;;;;;;;13.57;74.15;97007.06;128031;1104;22793;-83
2021/05/13 05:55:22;;;;;;;3.33;2.90;;;;;;;13.59;73.66;97000.14;127236;1099;115459;-83
2021/05/13 05:57:49;;;;;;;3.50;3.05;;;;;;;13.63;73.47;97008.31;127343;1104;115660;-83
2021/05/13 06:00:15;;;;;;;3.53;2.90;;;;;;;13.63;73.50;97003.67;127180;1104;115394;-84
2021/05/13 06:02:42;;;;;;;3.00;2.70;;;;;;;13.64;73.16;96999.08;127382;1104;115654;-84
2021/05/13 06:05:10;;;;;;;2.63;2.43;;;;;;;13.67;73.71;97012.63;128268;1104;22733;-83
2021/05/13 06:07:36;;;;;;;2.80;2.55;;;;;;;13.72;74.16;96996.11;127276;1105;115660;-84
2021/05/13 06:10:06;;;;;;;2.65;2.45;;;;;;;13.79;74.13;97003.53;127223;1105;115697;-84
2021/05/13 06:12:33;;;;;;;2.38;2.08;;;;;;;13.84;73.87;96999.77;127621;1104;116096;-81
2021/05/13 06:15:00;;;;;;;2.40;2.20;;;;;;;13.85;73.50;97004.02;127353;1104;116070;-83
2021/05/13 06:17:28;;;;;;;2.40;2.20;;;;;;;13.86;73.64;97002.88;128155;1104;22721;-83
2021/05/13 06:19:55;;;;;;;2.10;2.00;;;;;;;13.87;73.77;97004.42;128471;1104;22736;-83
2021/05/13 06:22:22;;;;;;;2.10;1.90;;;;;;;13.86;73.16;97008.28;127709;1104;115799;-83
2021/05/13 06:24:48;;;;;;;1.93;1.83;;;;;;;13.81;73.28;97012.08;127710;1104;115772;-83
2021/05/13 06:27:13;;;;;;;2.20;2.10;;;;;;;13.78;73.28;97004.69;127718;1104;115840;-83
2021/05/13 06:29:39;;;;;;;1.90;1.80;;;;;;;13.79;73.93;97006.23;127629;1104;115694;-83
2021/05/13 06:32:05;;;;;;;1.80;1.70;;;;;;;13.83;73.73;97015.19;128424;1105;24168;-83
2021/05/13 06:34:31;;;;;;;1.80;1.70;;;;;;;13.82;73.48;97013.64;127675;1104;115209;-82
2021/05/13 06:36:57;;;;;;;2.35;1.55;;;;;;;13.80;73.37;97010.53;127467;1104;115974;-83
2021/05/13 06:39:24;;;;;;;1.80;1.70;;;;;;;13.72;73.64;97006.16;127640;1099;116238;-83
2021/05/13 06:41:50;;;;;;;1.80;1.70;;;;;;;13.68;73.80;97016.91;127604;1104;115592;-85
2021/05/13 06:44:16;;;;;;;1.70;1.60;;;;;;;13.64;73.71;97007.97;128272;1104;22740;-84
2021/05/13 06:46:43;;;;;;;1.80;1.70;;;;;;;13.59;73.63;97005.55;127411;1105;115061;-83
2021/05/13 06:49:09;;;;;;;1.85;1.75;;;;;;;13.58;74.25;97008.63;127549;1104;115327;-82
2021/05/13 06:51:35;;;;;;;1.60;1.60;;;;;;;13.58;73.91;97003.99;127534;1104;115509;-83
2021/05/13 06:54:01;;;;;;;2.10;1.73;;;;;;;13.62;74.54;97012.16;127624;1104;115553;-82
2021/05/13 06:56:27;;;;;;;1.45;1.43;;;;;;;13.64;74.12;96999.85;128305;1104;115125;-82
2021/05/13 06:58:53;;;;;;;2.00;1.68;;;;;;;13.64;74.33;97004.48;128130;1104;119733;-82
2021/05/13 07:01:21;;;;;;;1.68;1.58;;;;;;;13.64;73.83;97007.19;127460;1104;115096;-82
2021/05/13 07:03:47;;;;;;;1.55;1.53;;;;;;;13.61;73.82;96999.79;127775;1104;115879;-82
2021/05/13 07:06:13;;;;;;;1.67;1.57;;;;;;;13.57;75.78;97009.77;127510;1100;115387;-82
2021/05/13 07:08:40;;;;;;;2.97;1.60;;;;;;;13.54;74.44;97005.86;127639;1104;115707;-82
2021/05/13 07:11:06;;;;;;;1.85;1.75;;;;;;;13.56;74.80;97005.48;128458;1104;22898;-82
2021/05/13 07:13:32;;;;;;;1.83;1.70;;;;;;;13.58;75.67;97000.51;127699;1104;115165;-82
2021/05/13 07:15:58;;;;;;;1.28;1.28;;;;;;;13.58;75.94;97009.40;127594;1104;115842;-81
2021/05/13 07:18:24;;;;;;;2.10;2.00;;;;;;;13.59;75.47;97007.47;127608;1104;115691;-82
2021/05/13 07:20:50;;;;;;;1.85;1.75;;;;;;;13.63;75.15;97011.02;127635;1100;116085;-82
2021/05/13 07:23:16;;;;;;;1.35;1.35;;;;;;;13.62;74.64;96999.42;128421;1105;22757;-82
2021/05/13 07:25:42;;;;;;;1.63;1.53;;;;;;;13.64;74.93;96999.08;127661;1104;115057;-82
2021/05/13 07:28:10;;;;;;;1.78;1.53;;;;;;;13.63;74.73;96997.48;127622;1104;115418;-82
2021/05/13 07:30:36;;;;;;;1.68;1.58;;;;;;;13.65;75.28;96998.70;127646;1100;115350;-82
2021/05/13 07:33:02;;;;;;;1.40;1.40;;;;;;;13.68;75.58;96995.27;127606;1105;115510;-81
2021/05/13 07:35:28;;;;;;;1.35;1.35;;;;;;;13.73;75.62;96991.48;127723;1106;115602;-81
2021/05/13 07:37:54;;;;;;;2.25;1.28;;;;;;;13.75;75.53;96986.47;128340;1099;22794;-82
2021/05/13 07:40:23;;;;;;;1.30;1.30;;;;;;;13.72;75.88;96995.34;127643;1104;115042;-82
2021/05/13 07:42:50;;;;;;;1.40;1.23;;;;;;;13.76;74.96;96993.46;127585;1105;115228;-81
2021/05/13 07:45:16;;;;;;;1.40;1.40;;;;;;;13.77;74.73;96995.02;127587;1105;115829;-82
2021/05/13 07:47:44;;;;;;;1.60;1.50;;;;;;;13.73;75.01;96989.55;127737;1104;115657;-82
2021/05/13 07:50:17;;;;;;;1.83;1.73;;;;;;;13.72;75.65;96985.29;128525;1104;22828;-82
2021/05/13 07:52:45;;;;;;;1.08;1.08;;;;;;;13.70;75.54;96992.20;127651;1105;115304;-82
2021/05/13 07:55:12;;;;;;;1.20;1.20;;;;;;;13.70;75.79;96994.90;127543;1104;115840;-81
2021/05/13 07:57:39;;;;;;;1.75;1.25;;;;;;;13.69;76.22;96979.83;127548;1104;115751;-81
2021/05/13 08:00:07;;;;;;;1.20;1.20;;;;;;;13.74;75.92;96999.22;127630;1104;116083;-81
2021/05/13 08:02:33;;;;;;;1.20;1.20;;;;;;;13.79;75.38;96994.64;127742;1104;117148;-81
2021/05/13 08:04:59;;;;;;;0.90;0.90;;;;;;;13.85;75.14;96996.69;128408;1104;22850;-81
2021/05/13 08:07:25;;;;;;;1.00;1.00;;;;;;;13.90;75.85;96990.17;127565;1104;115372;-81
2021/05/13 08:09:51;;;;;;;1.18;1.18;;;;;;;13.92;75.62;97001.42;127537;1104;116354;-81
2021/05/13 08:12:18;;;;;;;1.10;1.10;;;;;;;13.97;75.34;96991.06;127579;1105;115016;-82
2021/05/13 08:14:44;;;;;;;1.18;1.18;;;;;;;14.00;75.83;96993.04;127597;1104;115751;-82
2021/05/13 08:17:14;;;;;;;1.00;1.00;;;;;;;14.03;75.43;96996.95;128456;1105;22815;-82
2021/05/13 08:19:40;;;;;;;1.08;1.08;;;;;;;14.00;75.16;96997.67;127646;1100;115486;-82
2021/05/13 08:22:07;;;;;;;0.90;0.90;;;;;;;14.00;74.90;97000.38;127614;1104;115083;-81
2021/05/13 08:24:33;;;;;;;1.25;1.15;;;;;;;13.99;74.73;96999.61;127615;1100;116412;-81
2021/05/13 08:27:01;;;;;;;1.30;1.30;;;;;;;13.98;75.01;96995.31;127612;1104;115479;-81
2021/05/13 08:29:28;;;;;;;1.30;1.30;;;;;;;13.97;75.23;97006.52;128396;1104;22785;-80
2021/05/13 08:31:55;;;;;;;1.20;1.20;;;;;;;14.00;75.96;97005.80;128422;1104;22759;-80
2021/05/13 08:34:21;;;;;;;1.10;1.10;;;;;;;13.99;75.59;96996.90;127541;1104;114800;-81
2021/05/13 08:36:47;;;;;;;1.10;1.10;;;;;;;14.02;75.15;97008.13;127466;1105;115620;-81
2021/05/13 08:39:13;;;;;;;1.05;1.05;;;;;;;14.00;74.92;97009.28;127621;1104;115400;-81
2021/05/13 08:41:40;;;;;;;2.05;1.25;;;;;;;13.98;74.97;96997.25;127635;1104;115491;-81
2021/05/13 08:44:09;;;;;;;1.08;1.00;;;;;;;13.96;74.94;97004.97;128467;1104;22756;-82
2021/05/13 08:46:39;;;;;;;1.30;1.20;;;;;;;13.92;75.02;96999.50;127587;1106;115421;-83
2021/05/13 08:49:06;;;;;;;1.30;1.20;;;;;;;13.91;75.27;96997.14;127650;1104;115427;-82
2021/05/13 08:51:33;;;;;;;1.20;1.20;;;;;;;13.96;75.46;97003.03;127626;1104;115445;-82
2021/05/13 08:54:00;;;;;;;0.90;0.90;;;;;;;13.99;75.99;97005.02;127688;1104;114862;-81
2021/05/13 08:56:28;;;;;;;1.10;1.10;;;;;;;14.03;75.21;97007.78;128444;1104;22785;-81
2021/05/13 08:58:58;;;;;;;1.18;1.00;;;;;;;14.10;75.11;97007.86;128475;1104;24402;-80
2021/05/13 09:01:24;;;;;;;0.98;0.98;;;;;;;14.21;74.75;97008.78;127561;1104;116049;-83
2021/05/13 09:03:54;;;;;;;0.88;0.88;;;;;;;14.28;74.38;96999.22;127566;1104;115385;-82
2021/05/13 09:06:33;;;;;;;1.00;1.00;;;;;;;14.36;74.32;97003.57;127550;1104;115991;-82
2021/05/13 09:09:22;;;;;;;0.95;0.95;;;;;;;14.45;74.85;96998.65;127620;1104;115974;-82
2021/05/13 09:12:01;;;;;;;1.25;1.10;;;;;;;14.54;74.13;97017.35;127661;1104;115706;-82
2021/05/13 09:14:30;;;;;;;0.80;0.80;;;;;;;14.52;74.39;97009.61;128433;1104;22769;-82
2021/05/13 09:16:58;;;;;;;0.70;0.70;;;;;;;14.53;74.42;97007.67;128490;1104;22799;-82
2021/05/13 09:19:26;;;;;;;0.85;0.85;;;;;;;14.48;73.85;97008.75;127635;1105;115454;-82
2021/05/13 09:21:56;;;;;;;0.70;0.70;;;;;;;14.44;73.65;97011.41;127662;1104;115279;-81
2021/05/13 09:24:52;;;;;;;0.80;0.80;;;;;;;14.44;73.63;97016.05;127712;1104;116133;-81
2021/05/13 09:27:43;;;;;;;1.15;0.85;;;;;;;14.42;73.35;97011.02;127705;1104;114652;-81
2021/05/13 09:30:18;;;;;;;0.83;0.83;;;;;;;14.39;73.56;97011.75;127695;1104;115689;-81
2021/05/13 09:32:46;;;;;;;0.80;0.80;;;;;;;14.34;73.67;97003.92;127683;1104;115901;-83
2021/05/13 09:35:24;;;;;;;0.90;0.90;;;;;;;14.32;73.95;97002.75;128468;1104;22767;-82
2021/05/13 09:38:03;;;;;;;0.83;0.83;;;;;;;14.32;74.88;97019.77;127582;1105;115491;-83
2021/05/13 09:40:32;;;;;;;0.98;0.98;;;;;;;14.31;74.81;97009.31;127609;1104;115269;-83
2021/05/13 09:43:22;;;;;;;0.80;0.80;;;;;;;14.25;74.05;97014.25;127566;1104;115775;-83
2021/05/13 09:45:49;;;;;;;0.70;0.70;;;;;;;14.20;73.83;97012.65;127703;1104;116274;-84
2021/05/13 09:48:42;;;;;;;0.73;0.73;;;;;;;14.16;74.15;97013.75;127664;1104;115379;-83
2021/05/13 09:51:20;;;;;;;1.08;1.08;;;;;;;14.15;74.14;97010.27;127693;1099;115637;-82
2021/05/13 09:54:03;;;;;;;1.00;0.90;;;;;;;14.21;74.03;97011.50;127658;1104;116005;-84
2021/05/13 09:56:30;;;;;;;0.80;0.80;;;;;;;14.32;74.31;97000.81;127377;1104;115685;-82
2021/05/13 09:58:57;;;;;;;1.05;0.90;;;;;;;14.38;74.30;97003.97;128319;1099;25826;-81
2021/05/13 10:01:35;;;;;;;0.80;0.80;;;;;;;14.43;73.95;96996.32;127392;1104;115270;-81
2021/05/13 10:04:05;;;;;;;0.73;0.73;;;;;;;14.50;73.56;97003.77;127475;1100;115796;-81
2021/05/13 10:06:32;;;;;;;0.80;0.80;;;;;;;14.54;73.88;96999.20;127278;1104;116344;-82
2021/05/13 10:08:58;;;;;;;0.88;0.88;;;;;;;14.54;73.55;96992.97;127170;1104;114975;-84
2021/05/13 10:11:25;;;;;;;0.75;0.75;;;;;;;14.51;73.56;97002.64;128216;1104;22766;-84
2021/05/13 10:13:54;;;;;;;0.60;0.60;;;;;;;14.54;74.04;97001.91;127382;1104;115813;-82
2021/05/13 10:16:21;;;;;;;0.60;0.60;;;;;;;14.58;73.50;97002.73;127362;1100;116231;-82
2021/05/13 10:19:16;;;;;;;1.00;0.65;;;;;;;14.66;74.21;97000.89;127282;1100;115324;-80
2021/05/13 10:21:43;;;;;;;0.40;0.40;;;;;;;14.73;73.67;97011.78;127246;1104;117757;-81
2021/05/13 10:24:12;;;;;;;0.50;0.50;;;;;;;14.76;72.99;97005.63;128863;1104;116076;-80
2021/05/13 10:26:46;;;;;;;1.43;1.00;;;;;;;14.81;72.59;97001.80;127633;1104;115377;-83
2021/05/13 10:29:22;;;;;;;0.60;0.60;;;;;;;14.82;72.90;97003.39;128498;1104;22782;-83
2021/05/13 10:32:02;;;;;;;0.70;0.70;;;;;;;14.76;73.01;97005.63;127699;1104;116002;-83
2021/05/13 10:35:12;;;;;;;0.85;0.85;;;;;;;14.65;73.29;97002.79;127654;1104;116703;-80
2021/05/13 10:37:42;;;;;;;0.55;0.55;;;;;;;14.51;73.19;97007.28;127556;1108;115594;-82
2021/05/13 10:40:30;;;;;;;0.60;0.60;;;;;;;14.37;73.26;97008.61;127646;1104;116608;-80
2021/05/13 10:43:03;;;;;;;0.58;0.58;;;;;;;14.29;73.77;97006.95;127656;1104;116134;-80
2021/05/13 10:45:29;;;;;;;0.68;0.68;;;;;;;14.31;73.82;97003.90;127638;1104;116007;-80
2021/05/13 10:48:08;;;;;;;0.63;0.63;;;;;;;14.35;73.28;97007.44;127595;1099;116084;-80
2021/05/13 10:51:04;;;;;;;0.83;0.70;;;;;;;14.42;73.25;97005.60;127627;1104;115155;-81
2021/05/13 10:53:33;;;;;;;0.80;0.80;;;;;;;14.55;73.22;96999.98;127639;1104;115760;-81
2021/05/13 10:56:30;;;;;;;0.73;0.73;;;;;;;14.62;72.78;97006.26;128430;1104;22732;-81
2021/05/13 10:59:05;;;;;;;0.88;0.88;;;;;;;14.70;73.01;96996.28;128490;1104;22739;-81
2021/05/13 11:01:44;;;;;;;0.80;0.80;;;;;;;14.75;73.43;96995.17;127643;1104;115937;-80
2021/05/13 11:04:22;;;;;;;0.90;0.90;;;;;;;14.81;73.80;97004.52;127662;1104;116262;-82
2021/05/13 11:07:00;;;;;;;0.78;0.73;;;;;;;14.91;73.55;97009.28;127661;1104;115428;-81
2021/05/13 11:09:38;;;;;;;0.70;0.70;;;;;;;15.00;72.85;97007.05;127508;1100;115906;-81
2021/05/13 11:12:16;;;;;;;0.70;0.70;;;;;;;15.14;72.68;97001.01;127623;1104;116654;-81
2021/05/13 11:18:00;;;;;;;0.80;0.80;;;;;;;15.27;71.20;96996.09;128448;1104;23190;-81
2021/05/13 11:20:45;;;;;;;0.80;0.80;;;;;;;15.30;71.43;96998.84;128408;1099;25925;-81
2021/05/13 11:23:19;;;;;;;0.90;0.90;;;;;;;15.34;71.52;96988.02;128497;1104;22760;-81
2021/05/13 11:25:58;;;;;;;0.65;0.65;;;;;;;15.29;70.99;96991.05;127695;1098;115373;-81
2021/05/13 11:28:46;;;;;;;0.95;0.90;;;;;;;15.24;71.47;96992.18;127671;1104;115403;-81
2021/05/13 11:31:21;;;;;;;1.00;1.00;;;;;;;15.26;71.79;96992.59;127645;1104;115179;-81
2021/05/13 11:33:56;;;;;;;1.00;0.97;;;;;;;15.26;71.33;96989.89;127570;1104;115377;-81